Solsville, NY

7:44 AM EDT on April 26, 2015 (GMT -0400)
White Eagle Farm | | Change Station
CLOSE
Current Station
Personal Weather Station
Location: Hamilton, NY
Elevation: 1132 ft
Nearby Weather Stations

Elev 1132 ft 42.84 °N, 75.57 °W | Updated 4 minutes ago

Mostly Cloudy
Mostly Cloudy
33.3 °F
Feels Like 33 °F
N
0.0
Wind Variable Wind from North
Gusts 9.0 mph

Today
High -- | Low -- °F
--% Chance of Precip.
Yesterday
High -- | Low -- °F
Precip. -- in
6:03 AM 7:56 PM
First Quarter, 55% visible
Pressure 29.78 in
Visibility 10.0 miles
Clouds Overcast 6000 ft
Windchill 33 °F
Dew Point 31 °F
Humidity 91%
Rainfall 0.00 in
Snow Depth Not available.
UV 0 out of 12
Pollen 8.30 out of 12
Air Quality Not available.
Flu Activity Widespread
METAR KRME 261053Z 34003KT 10SM OVC060 01/M02 A2978 RMK AO2 SLP085 T00111017

More Conditions Fewer Conditions

Pressure 29.78 in
Visibility 10.0 miles
Clouds Overcast 6000 ft
Windchill 33 °F
Dew Point 31 °F
Humidity 91%
Rainfall 0.00 in
Snow Depth Not available.
UV 0 out of 12
Pollen 8.30 out of 12
Air Quality Not available.
Flu Activity Widespread
METAR KRME 261053Z 34003KT 10SM OVC060 01/M02 A2978 RMK AO2 SLP085 T00111017

More Conditions Fewer Conditions

The full scope of the disaster following a powerful 7.8-magnitude earthquake in Nepal may not come into view for days, but global charities are already sending emergency aid. Click to see how you can help.

10-Day Weather Forecast

Almanac

Astronomy

Apr. 26, 2015 Rise Set
Actual Time
Civil Twilight
Nautical Twilight
Astronomical Twilight
Moon
Length of Visible Light
Length of Day
Tomorrow will be .
, % of the Moon is Illuminated

Today's Extremes

State Highs State Lows

Community

WunderPhotos

Upload Photos

1,816,964 photos uploaded!

WunderBlogs® & News

Nearby

Air Quality

  Air Quality AQ Index Pollutant
Not available.

Snow Depth

Station Depth Elevation

Earthquake Activity

City Distance Mag. Time & Date
Minimum magnitude displayed is 2.5.

Coastal Water Temperatures

Place Temperature

Stations

Nearby Weather Stations

Station Location Temp. Windchill Dew Point Humidity Wind Precip. Elev Updated Type